createdAt,value
2019-01-09T00:00:51.722Z,986.89
2019-01-09T00:01:51.719Z,986.92
2019-01-09T00:02:51.707Z,986.86
2019-01-09T00:03:51.695Z,986.89
2019-01-09T00:04:51.728Z,986.86
2019-01-09T00:05:51.685Z,986.89
2019-01-09T00:06:51.675Z,986.90
2019-01-09T00:07:51.654Z,986.88
2019-01-09T00:08:51.643Z,986.90
2019-01-09T00:09:51.637Z,986.91
2019-01-09T00:10:51.635Z,986.89
2019-01-09T00:11:51.628Z,986.78
2019-01-09T00:12:51.619Z,986.87
2019-01-09T00:13:51.590Z,986.83
2019-01-09T00:14:51.583Z,986.86
2019-01-09T00:15:51.597Z,986.90
2019-01-09T00:16:51.565Z,986.84
2019-01-09T00:17:51.548Z,986.82
2019-01-09T00:18:51.542Z,986.88
2019-01-09T00:19:51.543Z,986.85
2019-01-09T00:20:51.535Z,986.82
2019-01-09T00:21:51.549Z,986.86
2019-01-09T00:22:51.522Z,986.83
2019-01-09T00:23:51.490Z,986.80
2019-01-09T00:24:51.490Z,986.79
2019-01-09T00:25:51.479Z,986.81
2019-01-09T00:26:53.435Z,986.75
2019-01-09T00:27:51.471Z,986.83
2019-01-09T00:28:51.434Z,986.81
2019-01-09T00:29:51.453Z,986.88
2019-01-09T00:30:51.429Z,986.82
2019-01-09T00:31:51.405Z,986.87
2019-01-09T00:32:51.415Z,986.90
2019-01-09T00:33:51.386Z,986.91
2019-01-09T00:34:51.371Z,986.91
2019-01-09T00:35:51.449Z,986.97
2019-01-09T00:36:51.359Z,986.88
2019-01-09T00:37:51.336Z,986.87
2019-01-09T00:38:51.356Z,986.85
2019-01-09T00:39:51.318Z,986.87
2019-01-09T00:40:51.320Z,986.82
2019-01-09T00:41:51.299Z,986.82
2019-01-09T00:42:51.286Z,986.93
2019-01-09T00:43:51.275Z,986.79
2019-01-09T00:44:51.309Z,986.94
2019-01-09T00:45:51.278Z,986.93
2019-01-09T00:46:51.244Z,986.92
2019-01-09T00:47:51.235Z,986.90
2019-01-09T00:48:51.225Z,986.92
2019-01-09T00:49:51.215Z,987.02
2019-01-09T00:50:51.235Z,986.91
2019-01-09T00:51:51.207Z,987.08
2019-01-09T00:52:51.192Z,987.08
2019-01-09T00:53:51.167Z,987.03
2019-01-09T00:54:51.158Z,986.86
2019-01-09T00:55:51.162Z,986.94
2019-01-09T00:56:51.353Z,987.10
2019-01-09T00:57:51.129Z,986.86
2019-01-09T00:58:51.125Z,986.99
2019-01-09T00:59:51.139Z,987.04
2019-01-09T01:00:51.120Z,986.94
2019-01-09T01:01:51.088Z,986.99
2019-01-09T01:02:51.159Z,987.03
2019-01-09T01:03:51.107Z,987.03
2019-01-09T01:04:51.052Z,987.06
2019-01-09T01:05:51.073Z,987.08
2019-01-09T01:06:51.037Z,987.11
2019-01-09T01:07:51.065Z,987.04
2019-01-09T01:08:51.027Z,987.11
2019-01-09T01:09:51.035Z,987.09
2019-01-09T01:10:51.004Z,987.09
2019-01-09T01:11:50.991Z,987.06
2019-01-09T01:12:51.007Z,987.14
2019-01-09T01:13:50.982Z,987.09
2019-01-09T01:14:50.947Z,987.14
2019-01-09T01:15:50.965Z,987.16
2019-01-09T01:16:50.930Z,987.16
2019-01-09T01:17:50.947Z,987.19
2019-01-09T01:18:50.918Z,987.09
2019-01-09T01:19:50.930Z,987.11
2019-01-09T01:20:50.911Z,987.12
2019-01-09T01:21:50.899Z,987.04
2019-01-09T01:22:50.919Z,987.11
2019-01-09T01:23:50.851Z,987.12
2019-01-09T01:24:50.843Z,987.09
2019-01-09T01:25:50.867Z,987.04
2019-01-09T01:26:50.840Z,986.97
2019-01-09T01:27:50.836Z,987.03
2019-01-09T01:28:50.808Z,987.09
2019-01-09T01:29:50.791Z,987.06
2019-01-09T01:30:50.840Z,986.92
2019-01-09T01:31:50.768Z,987.10
2019-01-09T01:32:50.772Z,987.13
2019-01-09T01:33:50.772Z,987.05
2019-01-09T01:34:50.733Z,987.05
2019-01-09T01:35:54.884Z,987.07
2019-01-09T01:36:50.730Z,987.12
2019-01-09T01:37:50.706Z,987.07
2019-01-09T01:38:50.693Z,987.12
2019-01-09T01:39:50.749Z,987.12
2019-01-09T01:40:50.705Z,987.11
2019-01-09T01:41:50.696Z,987.09
2019-01-09T01:42:50.650Z,987.16
2019-01-09T01:43:50.637Z,987.08
2019-01-09T01:44:50.627Z,987.00
2019-01-09T01:45:50.684Z,987.02
2019-01-09T01:46:50.622Z,987.05
2019-01-09T01:47:50.624Z,987.06
2019-01-09T01:48:50.592Z,987.12
2019-01-09T01:49:50.603Z,986.98
2019-01-09T01:50:50.567Z,987.12
2019-01-09T01:51:50.595Z,987.05
2019-01-09T01:52:50.545Z,987.04
2019-01-09T01:53:50.532Z,987.01
2019-01-09T01:54:50.538Z,987.04
2019-01-09T01:55:50.523Z,987.05
2019-01-09T01:56:50.595Z,987.11
2019-01-09T01:57:50.493Z,986.98
2019-01-09T01:58:50.480Z,987.06
2019-01-09T01:59:50.481Z,987.17
2019-01-09T02:00:50.461Z,987.01
2019-01-09T02:01:50.470Z,986.98
2019-01-09T02:02:50.456Z,987.03
2019-01-09T02:03:50.438Z,987.21
2019-01-09T02:04:50.454Z,987.18
2019-01-09T02:05:50.429Z,987.23
2019-01-09T02:06:50.447Z,987.20
2019-01-09T02:07:50.402Z,987.25
2019-01-09T02:08:50.378Z,987.19
2019-01-09T02:09:50.372Z,987.30
2019-01-09T02:10:50.421Z,987.28
2019-01-09T02:11:50.364Z,987.29
2019-01-09T02:12:50.333Z,987.29
2019-01-09T02:13:50.349Z,987.34
2019-01-09T02:14:50.333Z,987.42
2019-01-09T02:15:50.357Z,987.37
2019-01-09T02:16:50.293Z,987.41
2019-01-09T02:17:50.352Z,987.40
2019-01-09T02:18:50.300Z,987.51
2019-01-09T02:19:50.271Z,987.52
2019-01-09T02:20:50.272Z,987.54
2019-01-09T02:21:50.301Z,987.62
2019-01-09T02:22:50.230Z,987.52
2019-01-09T02:23:50.227Z,987.65
2019-01-09T02:24:50.247Z,987.63
2019-01-09T02:25:50.215Z,987.65
2019-01-09T02:26:50.186Z,987.67
2019-01-09T02:27:50.181Z,987.71
2019-01-09T02:28:50.173Z,987.73
2019-01-09T02:29:50.209Z,987.76
2019-01-09T02:30:50.178Z,987.74
2019-01-09T02:31:50.134Z,987.79
2019-01-09T02:32:50.144Z,987.79
2019-01-09T02:33:50.127Z,987.79
2019-01-09T02:34:50.111Z,987.75
2019-01-09T02:35:50.109Z,987.80
2019-01-09T02:36:50.161Z,987.80
2019-01-09T02:37:50.093Z,987.77
2019-01-09T02:38:50.064Z,987.79
2019-01-09T02:39:50.050Z,987.83
2019-01-09T02:40:52.000Z,987.86
2019-01-09T02:41:50.033Z,987.82
2019-01-09T02:42:50.054Z,987.82
2019-01-09T02:43:50.006Z,987.82
2019-01-09T02:44:49.996Z,987.82
2019-01-09T02:45:50.017Z,987.83
2019-01-09T02:46:49.972Z,987.82
2019-01-09T02:47:49.975Z,987.84
2019-01-09T02:48:49.955Z,987.80
2019-01-09T02:49:49.973Z,987.84
2019-01-09T02:50:49.947Z,987.82
2019-01-09T02:51:49.930Z,987.76
2019-01-09T02:52:49.927Z,987.81
2019-01-09T02:53:49.930Z,987.76
2019-01-09T02:54:49.893Z,987.75
2019-01-09T02:55:49.944Z,987.74
2019-01-09T02:56:49.869Z,987.70
2019-01-09T02:57:56.560Z,987.70
2019-01-09T02:58:50.866Z,987.67
2019-01-09T02:59:49.844Z,987.68
2019-01-09T03:00:49.885Z,987.68
2019-01-09T03:01:49.825Z,987.68
2019-01-09T03:02:49.821Z,987.64
2019-01-09T03:03:49.796Z,987.70
2019-01-09T03:04:49.784Z,987.70
2019-01-09T03:05:49.784Z,987.70
2019-01-09T03:06:49.764Z,987.74
2019-01-09T03:07:49.751Z,987.68
2019-01-09T03:08:49.761Z,987.65
2019-01-09T03:09:49.728Z,987.63
2019-01-09T03:10:49.742Z,987.50
2019-01-09T03:11:49.707Z,987.68
2019-01-09T03:12:49.703Z,987.69
2019-01-09T03:13:49.691Z,987.70
2019-01-09T03:14:49.713Z,987.68
2019-01-09T03:15:49.684Z,987.70
2019-01-09T03:16:49.663Z,987.69
2019-01-09T03:17:49.648Z,987.67
2019-01-09T03:18:49.631Z,987.72
2019-01-09T03:19:49.636Z,987.74
2019-01-09T03:20:49.631Z,987.68
2019-01-09T03:21:49.604Z,987.72
2019-01-09T03:22:49.611Z,987.60
2019-01-09T03:23:49.640Z,987.58
2019-01-09T03:24:49.573Z,987.68
2019-01-09T03:25:49.578Z,987.69
2019-01-09T03:26:49.575Z,987.73
2019-01-09T03:27:49.540Z,987.64
2019-01-09T03:28:49.547Z,987.68
2019-01-09T03:29:49.532Z,987.70
2019-01-09T03:30:49.536Z,987.67
2019-01-09T03:31:49.502Z,987.72
2019-01-09T03:32:49.554Z,987.72
2019-01-09T03:33:49.482Z,987.70
2019-01-09T03:34:49.473Z,987.73
2019-01-09T03:35:49.479Z,987.71
2019-01-09T03:36:49.466Z,987.72
2019-01-09T03:37:49.436Z,987.70
2019-01-09T03:38:49.423Z,987.70
2019-01-09T03:39:49.420Z,987.70
2019-01-09T03:40:49.443Z,987.74
2019-01-09T03:41:49.414Z,987.68
2019-01-09T03:42:49.390Z,987.64
2019-01-09T03:43:49.399Z,987.66
2019-01-09T03:44:49.356Z,987.70
2019-01-09T03:45:49.362Z,987.63
2019-01-09T03:46:49.374Z,987.62
2019-01-09T03:47:49.330Z,987.60
2019-01-09T03:48:49.317Z,987.57
2019-01-09T03:49:49.313Z,987.51
2019-01-09T03:50:49.415Z,987.50
2019-01-09T03:51:49.280Z,987.45
2019-01-09T03:52:49.273Z,987.37
2019-01-09T03:53:49.264Z,987.37
2019-01-09T03:54:49.251Z,987.38
2019-01-09T03:55:49.253Z,987.29
2019-01-09T03:56:49.234Z,987.41
2019-01-09T03:57:49.218Z,987.40
2019-01-09T03:58:49.217Z,987.38
2019-01-09T03:59:49.223Z,987.47
2019-01-09T04:00:49.238Z,987.47
2019-01-09T04:01:49.182Z,987.53
2019-01-09T04:02:49.179Z,987.63
2019-01-09T04:03:49.171Z,987.63
2019-01-09T04:04:49.155Z,987.62
2019-01-09T04:05:49.173Z,987.71
2019-01-09T04:06:49.174Z,987.85
2019-01-09T04:07:49.123Z,987.96
2019-01-09T04:08:49.127Z,987.91
2019-01-09T04:09:49.095Z,987.72
2019-01-09T04:10:49.189Z,987.62
2019-01-09T04:11:49.098Z,987.64
2019-01-09T04:12:49.135Z,987.58
2019-01-09T04:13:49.052Z,987.72
2019-01-09T04:14:49.057Z,987.72
2019-01-09T04:15:49.027Z,987.72
2019-01-09T04:16:49.055Z,987.71
2019-01-09T04:17:49.007Z,987.74
2019-01-09T04:18:49.000Z,987.79
2019-01-09T04:19:49.134Z,987.80
2019-01-09T04:20:49.003Z,987.76
2019-01-09T04:21:49.011Z,987.89
2019-01-09T04:22:48.956Z,987.88
2019-01-09T04:23:48.969Z,987.89
2019-01-09T04:24:48.942Z,987.87
2019-01-09T04:25:49.015Z,987.93
2019-01-09T04:26:48.971Z,987.95
2019-01-09T04:27:49.117Z,987.91
2019-01-09T04:28:48.901Z,987.91
2019-01-09T04:29:48.929Z,987.87
2019-01-09T04:30:48.897Z,987.89
2019-01-09T04:31:48.940Z,987.84
2019-01-09T04:32:48.857Z,987.92
2019-01-09T04:33:48.858Z,987.86
2019-01-09T04:34:48.863Z,987.88
2019-01-09T04:35:48.882Z,987.93
2019-01-09T04:36:51.648Z,987.84
2019-01-09T04:37:48.795Z,987.79
2019-01-09T04:38:48.836Z,987.81
2019-01-09T04:39:48.784Z,987.80
2019-01-09T04:40:48.777Z,987.89
2019-01-09T04:41:48.789Z,987.82
2019-01-09T04:42:48.792Z,987.86
2019-01-09T04:43:48.729Z,987.88
2019-01-09T04:44:48.722Z,987.82
2019-01-09T04:45:48.720Z,987.79
2019-01-09T04:46:48.712Z,987.77
2019-01-09T04:47:48.707Z,987.78
2019-01-09T04:48:48.909Z,987.78
2019-01-09T04:49:48.671Z,987.80
2019-01-09T04:50:48.677Z,987.77
2019-01-09T04:51:48.666Z,987.73
2019-01-09T04:52:48.639Z,987.75
2019-01-09T04:53:48.635Z,987.72
2019-01-09T04:54:48.645Z,987.78
2019-01-09T04:55:48.609Z,987.77
2019-01-09T04:56:48.615Z,987.82
2019-01-09T04:57:48.583Z,987.83
2019-01-09T04:58:48.573Z,987.86
2019-01-09T04:59:48.662Z,987.87
2019-01-09T05:00:48.559Z,987.88
2019-01-09T05:01:48.574Z,987.89
2019-01-09T05:02:48.543Z,987.89
2019-01-09T05:03:48.523Z,987.87
2019-01-09T05:04:49.449Z,987.80
2019-01-09T05:05:48.519Z,987.84
2019-01-09T05:06:48.513Z,987.72
2019-01-09T05:07:48.476Z,987.79
2019-01-09T05:08:48.496Z,987.79
2019-01-09T05:09:48.486Z,987.79
2019-01-09T05:10:48.445Z,987.80
2019-01-09T05:11:48.460Z,987.82
2019-01-09T05:12:48.422Z,987.80
2019-01-09T05:13:48.453Z,987.84
2019-01-09T05:14:48.426Z,987.84
2019-01-09T05:15:48.391Z,987.85
2019-01-09T05:16:48.438Z,987.76
2019-01-09T05:17:48.367Z,987.77
2019-01-09T05:18:48.357Z,987.88
2019-01-09T05:19:48.346Z,987.89
2019-01-09T05:20:48.337Z,987.90
2019-01-09T05:21:48.342Z,987.99
2019-01-09T05:22:48.352Z,987.99
2019-01-09T05:23:48.306Z,987.89
2019-01-09T05:24:48.327Z,988.00
2019-01-09T05:25:48.282Z,988.02
2019-01-09T05:26:48.286Z,987.98
2019-01-09T05:27:48.270Z,987.97
2019-01-09T05:28:48.263Z,987.92
2019-01-09T05:29:48.261Z,987.92
2019-01-09T05:30:48.284Z,987.99
2019-01-09T05:31:48.275Z,988.04
2019-01-09T05:32:48.209Z,987.96
2019-01-09T05:33:48.210Z,987.96
2019-01-09T05:34:48.206Z,987.96
2019-01-09T05:35:48.255Z,987.95
2019-01-09T05:36:48.187Z,987.99
2019-01-09T05:37:48.241Z,988.02
2019-01-09T05:38:48.200Z,987.87
2019-01-09T05:39:48.150Z,987.90
2019-01-09T05:40:48.199Z,987.79
2019-01-09T05:41:48.220Z,987.80
2019-01-09T05:42:48.126Z,987.74
2019-01-09T05:43:48.185Z,987.77
2019-01-09T05:44:48.845Z,987.75
2019-01-09T05:45:48.088Z,987.76
2019-01-09T05:46:48.107Z,987.82
2019-01-09T05:47:48.107Z,987.83
2019-01-09T05:48:48.047Z,987.88
2019-01-09T05:49:48.070Z,987.78
2019-01-09T05:50:48.028Z,987.77
2019-01-09T05:51:48.236Z,987.81
2019-01-09T05:52:48.019Z,987.77
2019-01-09T05:53:48.032Z,987.76
2019-01-09T05:54:47.985Z,987.77
2019-01-09T05:55:47.968Z,987.72
2019-01-09T05:56:47.969Z,987.75
2019-01-09T05:57:47.971Z,987.77
2019-01-09T05:58:47.939Z,987.75
2019-01-09T05:59:47.967Z,987.78
2019-01-09T06:00:47.922Z,987.84
2019-01-09T06:01:47.904Z,987.88
2019-01-09T06:02:47.914Z,987.92
2019-01-09T06:03:47.888Z,987.88
2019-01-09T06:04:47.876Z,987.91
2019-01-09T06:05:47.931Z,987.90
2019-01-09T06:06:47.852Z,987.84
2019-01-09T06:07:47.858Z,987.92
2019-01-09T06:08:47.831Z,987.96
2019-01-09T06:09:47.819Z,987.93
2019-01-09T06:10:47.807Z,987.96
2019-01-09T06:11:47.875Z,987.95
2019-01-09T06:12:47.806Z,987.97
2019-01-09T06:13:47.776Z,987.96
2019-01-09T06:14:47.772Z,987.95
2019-01-09T06:15:47.759Z,987.95
2019-01-09T06:16:47.751Z,987.95
2019-01-09T06:17:47.772Z,987.88
2019-01-09T06:18:47.723Z,987.90
2019-01-09T06:19:48.307Z,987.93
2019-01-09T06:20:47.715Z,987.92
2019-01-09T06:21:47.753Z,987.90
2019-01-09T06:22:47.724Z,987.90
2019-01-09T06:23:47.719Z,987.92
2019-01-09T06:24:47.704Z,987.95
2019-01-09T06:25:47.733Z,988.01
2019-01-09T06:26:47.644Z,988.06
2019-01-09T06:27:47.641Z,988.11
2019-01-09T06:28:47.665Z,988.13
2019-01-09T06:29:47.612Z,988.18
2019-01-09T06:30:47.599Z,988.14
2019-01-09T06:31:47.597Z,988.11
2019-01-09T06:32:47.602Z,988.03
2019-01-09T06:33:47.626Z,987.98
2019-01-09T06:34:47.757Z,987.95
2019-01-09T06:35:47.608Z,987.93
2019-01-09T06:36:47.578Z,988.00
2019-01-09T06:37:47.641Z,988.05
2019-01-09T06:38:47.555Z,988.07
2019-01-09T06:39:47.502Z,988.08
2019-01-09T06:40:47.533Z,988.05
2019-01-09T06:41:47.483Z,988.04
2019-01-09T06:42:47.493Z,988.04
2019-01-09T06:43:47.469Z,988.09
2019-01-09T06:44:47.458Z,988.09
2019-01-09T06:45:47.448Z,988.09
2019-01-09T06:46:47.463Z,988.04
2019-01-09T06:47:47.435Z,988.07
2019-01-09T06:48:47.408Z,988.13
2019-01-09T06:49:47.400Z,988.14
2019-01-09T06:50:47.383Z,988.17
2019-01-09T06:51:47.376Z,988.16
2019-01-09T06:52:47.410Z,988.23
2019-01-09T06:53:47.505Z,988.17
2019-01-09T06:54:47.403Z,988.19
2019-01-09T06:55:47.574Z,988.23
2019-01-09T06:56:47.328Z,988.21
2019-01-09T06:57:47.331Z,988.24
2019-01-09T06:58:47.332Z,988.24
2019-01-09T06:59:47.292Z,988.26
2019-01-09T07:00:47.383Z,988.25
2019-01-09T07:01:47.268Z,988.31
2019-01-09T07:02:47.271Z,988.30
2019-01-09T07:03:47.251Z,988.34
2019-01-09T07:04:47.276Z,988.30
2019-01-09T07:05:47.230Z,988.35
2019-01-09T07:06:47.221Z,988.36
2019-01-09T07:07:47.224Z,988.38
2019-01-09T07:08:47.197Z,988.33
2019-01-09T07:09:47.189Z,988.36
2019-01-09T07:10:47.222Z,988.31
2019-01-09T07:11:47.165Z,988.33
2019-01-09T07:12:47.208Z,988.38
2019-01-09T07:13:47.142Z,988.41
2019-01-09T07:14:47.135Z,988.36
2019-01-09T07:15:47.123Z,988.36
2019-01-09T07:16:47.385Z,988.42
2019-01-09T07:17:47.099Z,988.41
2019-01-09T07:18:47.106Z,988.45
2019-01-09T07:19:47.078Z,988.44
2019-01-09T07:20:47.069Z,988.43
2019-01-09T07:21:47.058Z,988.46
2019-01-09T07:22:47.090Z,988.46
2019-01-09T07:23:47.052Z,988.39
2019-01-09T07:24:47.027Z,988.42
2019-01-09T07:25:47.020Z,988.44
2019-01-09T07:26:47.006Z,988.48
2019-01-09T07:27:46.996Z,988.39
2019-01-09T07:28:47.032Z,988.38
2019-01-09T07:29:46.973Z,988.44
2019-01-09T07:30:46.966Z,988.42
2019-01-09T07:31:46.953Z,988.40
2019-01-09T07:32:46.944Z,988.44
2019-01-09T07:33:46.950Z,988.41
2019-01-09T07:34:46.929Z,988.44
2019-01-09T07:35:46.911Z,988.40
2019-01-09T07:36:46.901Z,988.40
2019-01-09T07:37:47.831Z,988.43
2019-01-09T07:38:46.895Z,988.37
2019-01-09T07:39:46.866Z,988.43
2019-01-09T07:40:46.885Z,988.40
2019-01-09T07:41:46.867Z,988.46
2019-01-09T07:42:46.840Z,988.42
2019-01-09T07:43:46.844Z,988.45
2019-01-09T07:44:46.821Z,988.51
2019-01-09T07:45:46.805Z,988.39
2019-01-09T07:46:46.794Z,988.50
2019-01-09T07:47:46.792Z,988.46
2019-01-09T07:48:46.797Z,988.46
2019-01-09T07:49:46.793Z,988.50
2019-01-09T07:50:46.750Z,988.50
2019-01-09T07:51:46.747Z,988.50
2019-01-09T07:52:46.729Z,988.50
2019-01-09T07:53:46.735Z,988.46
2019-01-09T07:54:46.713Z,988.42
2019-01-09T07:55:46.715Z,988.44
2019-01-09T07:56:46.703Z,988.41
2019-01-09T07:57:46.686Z,988.50
2019-01-09T07:58:47.018Z,988.47
2019-01-09T07:59:46.672Z,988.50
2019-01-09T08:00:46.709Z,988.45
2019-01-09T08:01:46.652Z,988.51
2019-01-09T08:02:46.636Z,988.54
2019-01-09T08:03:46.630Z,988.46
2019-01-09T08:04:46.676Z,988.53
2019-01-09T08:05:46.601Z,988.49
2019-01-09T08:06:46.596Z,988.48
2019-01-09T08:07:53.806Z,988.48
2019-01-09T08:08:47.578Z,988.50
2019-01-09T08:09:46.583Z,988.48
2019-01-09T08:10:46.548Z,988.53
2019-01-09T08:11:46.691Z,988.56
2019-01-09T08:12:46.531Z,988.59
2019-01-09T08:13:46.548Z,988.55
2019-01-09T08:14:46.537Z,988.60
2019-01-09T08:15:46.497Z,988.60
2019-01-09T08:16:46.482Z,988.65
2019-01-09T08:17:46.490Z,988.68
2019-01-09T08:18:48.353Z,988.71
2019-01-09T08:19:46.475Z,988.61
2019-01-09T08:20:46.453Z,988.73
2019-01-09T08:21:46.426Z,988.77
2019-01-09T08:22:46.441Z,988.72
2019-01-09T08:23:46.420Z,988.80
2019-01-09T08:24:46.418Z,988.82
2019-01-09T08:25:46.441Z,988.75
2019-01-09T08:26:46.413Z,988.87
2019-01-09T08:27:46.384Z,988.83
2019-01-09T08:28:46.375Z,988.90
2019-01-09T08:29:46.355Z,988.86
2019-01-09T08:30:46.345Z,988.87
2019-01-09T08:31:46.323Z,988.99
2019-01-09T08:32:46.313Z,988.95
2019-01-09T08:33:46.327Z,988.91
2019-01-09T08:34:46.300Z,988.97
2019-01-09T08:35:46.288Z,988.99
2019-01-09T08:36:46.283Z,988.99
2019-01-09T08:37:46.253Z,988.95
2019-01-09T08:38:46.264Z,989.02
2019-01-09T08:39:46.243Z,989.01
2019-01-09T08:40:46.233Z,988.96
2019-01-09T08:41:46.214Z,989.00
2019-01-09T08:42:46.205Z,989.02
2019-01-09T08:43:46.209Z,988.98
2019-01-09T08:44:46.187Z,988.99
2019-01-09T08:45:46.178Z,989.03
2019-01-09T08:46:46.210Z,989.02
2019-01-09T08:47:46.161Z,989.09
2019-01-09T08:48:46.218Z,989.04
2019-01-09T08:49:46.149Z,989.12
2019-01-09T08:50:46.157Z,989.10
2019-01-09T08:51:46.139Z,989.13
2019-01-09T08:52:46.119Z,989.18
2019-01-09T08:53:46.137Z,989.11
2019-01-09T08:54:46.102Z,989.20
2019-01-09T08:55:46.070Z,989.13
2019-01-09T08:56:46.106Z,989.26
2019-01-09T08:57:46.053Z,989.17
2019-01-09T08:58:46.076Z,989.18
2019-01-09T08:59:46.049Z,989.21
2019-01-09T09:00:46.020Z,989.28
2019-01-09T09:01:46.112Z,989.30
2019-01-09T09:02:46.106Z,989.33
2019-01-09T09:03:46.005Z,989.25
2019-01-09T09:04:46.000Z,989.28
2019-01-09T09:05:45.977Z,989.34
2019-01-09T09:06:46.017Z,989.35
2019-01-09T09:07:45.943Z,989.34
2019-01-09T09:08:45.933Z,989.26
2019-01-09T09:09:45.954Z,989.39
2019-01-09T09:10:45.940Z,989.39
2019-01-09T09:11:45.920Z,989.39
2019-01-09T09:12:45.903Z,989.39
2019-01-09T09:13:45.901Z,989.38
2019-01-09T09:14:45.886Z,989.41
2019-01-09T09:15:45.861Z,989.48
2019-01-09T09:16:45.851Z,989.45
2019-01-09T09:17:45.838Z,989.45
2019-01-09T09:18:45.883Z,989.47
2019-01-09T09:19:45.879Z,989.51
2019-01-09T09:20:45.818Z,989.51
2019-01-09T09:21:45.832Z,989.50
2019-01-09T09:22:45.798Z,989.47
2019-01-09T09:23:45.770Z,989.45
2019-01-09T09:24:45.781Z,989.37
2019-01-09T09:25:45.761Z,989.36
2019-01-09T09:26:45.765Z,989.44
2019-01-09T09:27:45.735Z,989.44
2019-01-09T09:28:45.740Z,989.46
2019-01-09T09:29:45.764Z,989.48
2019-01-09T09:30:45.701Z,989.45
2019-01-09T09:31:45.699Z,989.47
2019-01-09T09:32:45.672Z,989.45
2019-01-09T09:33:45.690Z,989.53
2019-01-09T09:34:45.675Z,989.54
2019-01-09T09:35:45.640Z,989.54
2019-01-09T09:36:45.647Z,989.56
2019-01-09T09:37:45.635Z,989.54
2019-01-09T09:38:45.625Z,989.54
2019-01-09T09:39:45.614Z,989.53
2019-01-09T09:40:45.620Z,989.55
2019-01-09T09:41:45.576Z,989.59
2019-01-09T09:42:45.565Z,989.57
2019-01-09T09:43:45.576Z,989.54
2019-01-09T09:44:45.563Z,989.53
2019-01-09T09:45:45.537Z,989.51
2019-01-09T09:46:45.525Z,989.60
2019-01-09T09:47:45.514Z,989.59
2019-01-09T09:48:45.534Z,989.62
2019-01-09T09:49:45.541Z,989.64
2019-01-09T09:50:45.481Z,989.63
2019-01-09T09:51:45.474Z,989.61
2019-01-09T09:52:45.469Z,989.63
2019-01-09T09:53:45.459Z,989.65
2019-01-09T09:54:45.454Z,989.67
2019-01-09T09:55:45.438Z,989.64
2019-01-09T09:56:45.430Z,989.62
2019-01-09T09:57:45.412Z,989.61
2019-01-09T09:58:45.396Z,989.57
2019-01-09T09:59:45.401Z,989.63
2019-01-09T10:00:45.371Z,989.64
2019-01-09T10:01:46.277Z,989.61
2019-01-09T10:02:45.398Z,989.61
2019-01-09T10:03:45.343Z,989.65
2019-01-09T10:04:45.489Z,989.58
2019-01-09T10:05:45.332Z,989.64
2019-01-09T10:06:45.309Z,989.65
2019-01-09T10:07:45.313Z,989.66
2019-01-09T10:08:45.303Z,989.66
2019-01-09T10:09:45.296Z,989.71
2019-01-09T10:10:45.266Z,989.65
2019-01-09T10:11:45.258Z,989.67
2019-01-09T10:12:45.249Z,989.65
2019-01-09T10:13:45.237Z,989.69
2019-01-09T10:14:45.250Z,989.72
2019-01-09T10:15:45.217Z,989.75
2019-01-09T10:16:45.213Z,989.75
2019-01-09T10:17:45.191Z,989.80
2019-01-09T10:18:45.181Z,989.82
2019-01-09T10:19:45.185Z,989.73
2019-01-09T10:20:45.173Z,989.77
2019-01-09T10:21:45.149Z,989.81
2019-01-09T10:22:45.140Z,989.86
2019-01-09T10:23:45.129Z,989.83
2019-01-09T10:24:45.142Z,989.82
2019-01-09T10:25:45.401Z,989.83
2019-01-09T10:26:45.111Z,989.81
2019-01-09T10:27:45.085Z,989.80
2019-01-09T10:28:45.080Z,989.86
2019-01-09T10:29:45.081Z,989.82
2019-01-09T10:30:45.061Z,989.84
2019-01-09T10:31:45.780Z,989.84
2019-01-09T10:32:45.059Z,989.81
2019-01-09T10:33:45.020Z,989.79
2019-01-09T10:34:45.299Z,989.80
2019-01-09T10:35:45.000Z,989.75
2019-01-09T10:36:44.990Z,989.85
2019-01-09T10:37:44.978Z,989.79
2019-01-09T10:38:45.004Z,989.75
2019-01-09T10:39:44.971Z,989.79
2019-01-09T10:40:44.952Z,989.81
2019-01-09T10:41:44.947Z,989.82
2019-01-09T10:42:44.926Z,989.79
2019-01-09T10:43:44.925Z,989.81
2019-01-09T10:44:44.951Z,989.80
2019-01-09T10:45:44.913Z,989.85
2019-01-09T10:46:45.180Z,989.80
2019-01-09T10:47:44.897Z,989.88
2019-01-09T10:48:44.882Z,989.78
2019-01-09T10:49:44.909Z,989.82
2019-01-09T10:50:44.865Z,989.78
2019-01-09T10:51:44.839Z,989.76
2019-01-09T10:52:44.839Z,989.78
2019-01-09T10:53:44.827Z,989.73
2019-01-09T10:54:44.801Z,989.75
2019-01-09T10:55:44.810Z,989.80
2019-01-09T10:56:44.802Z,989.76
2019-01-09T10:57:44.769Z,989.79
2019-01-09T10:58:44.761Z,989.82
2019-01-09T10:59:44.752Z,989.86
2019-01-09T11:00:44.758Z,989.73
2019-01-09T11:01:44.733Z,989.73
2019-01-09T11:02:44.744Z,989.80
2019-01-09T11:03:44.716Z,989.82
2019-01-09T11:04:44.706Z,989.71
2019-01-09T11:05:44.714Z,989.73
2019-01-09T11:06:44.680Z,989.72
2019-01-09T11:07:44.704Z,989.76
2019-01-09T11:08:47.047Z,989.75
2019-01-09T11:09:44.670Z,989.75
2019-01-09T11:10:44.653Z,989.72
2019-01-09T11:11:44.624Z,989.73
2019-01-09T11:12:44.615Z,989.66
2019-01-09T11:13:44.646Z,989.68
2019-01-09T11:14:44.592Z,989.67
2019-01-09T11:15:44.599Z,989.60
2019-01-09T11:16:44.620Z,989.68
2019-01-09T11:17:44.577Z,989.56
2019-01-09T11:18:44.549Z,989.55
2019-01-09T11:19:44.564Z,989.58
2019-01-09T11:20:44.581Z,989.57
2019-01-09T11:21:44.521Z,989.55
2019-01-09T11:22:44.513Z,989.55
2019-01-09T11:23:44.508Z,989.55
2019-01-09T11:24:44.527Z,989.57
2019-01-09T11:25:44.494Z,989.43
2019-01-09T11:26:44.468Z,989.49
2019-01-09T11:27:44.470Z,989.51
2019-01-09T11:28:44.463Z,989.48
2019-01-09T11:29:44.523Z,989.42
2019-01-09T11:30:44.438Z,989.51
2019-01-09T11:31:44.433Z,989.49
2019-01-09T11:32:44.404Z,989.48
2019-01-09T11:33:44.449Z,989.40
2019-01-09T11:34:44.381Z,989.44
2019-01-09T11:35:44.392Z,989.42
2019-01-09T11:36:44.403Z,989.44
2019-01-09T11:37:44.364Z,989.40
2019-01-09T11:38:44.341Z,989.36
2019-01-09T11:39:44.344Z,989.35
2019-01-09T11:40:44.340Z,989.40
2019-01-09T11:41:44.306Z,989.34
2019-01-09T11:42:44.308Z,989.28
2019-01-09T11:43:44.289Z,989.22
2019-01-09T11:44:44.276Z,989.38
2019-01-09T11:45:44.360Z,989.29
2019-01-09T11:46:44.252Z,989.35
2019-01-09T11:47:44.302Z,989.36
2019-01-09T11:48:44.239Z,989.30
2019-01-09T11:49:44.254Z,989.28
2019-01-09T11:50:44.279Z,989.20
2019-01-09T11:51:44.222Z,989.27
2019-01-09T11:52:44.200Z,989.27
2019-01-09T11:53:44.229Z,989.29
2019-01-09T11:54:44.171Z,989.30
2019-01-09T11:55:44.181Z,989.31
2019-01-09T11:56:44.158Z,989.29
2019-01-09T11:57:44.178Z,989.31
2019-01-09T11:58:44.135Z,989.34
2019-01-09T11:59:44.125Z,989.33
2019-01-09T12:00:44.133Z,989.30
2019-01-09T12:01:44.120Z,989.27
2019-01-09T12:02:44.088Z,989.28
2019-01-09T12:03:44.091Z,989.27
2019-01-09T12:04:44.067Z,989.32
2019-01-09T12:05:44.070Z,989.31
2019-01-09T12:06:44.043Z,989.34
2019-01-09T12:07:44.074Z,989.34
2019-01-09T12:08:44.042Z,989.35
2019-01-09T12:09:44.014Z,989.30
2019-01-09T12:10:44.028Z,989.18
2019-01-09T12:11:44.021Z,989.28
2019-01-09T12:12:43.988Z,989.32
2019-01-09T12:13:43.978Z,989.29
2019-01-09T12:14:43.967Z,989.25
2019-01-09T12:15:44.019Z,989.26
2019-01-09T12:16:43.950Z,989.28
2019-01-09T12:17:43.942Z,989.31
2019-01-09T12:18:43.922Z,989.28
2019-01-09T12:19:43.929Z,989.32
2019-01-09T12:20:43.895Z,989.32
2019-01-09T12:21:43.916Z,989.22
2019-01-09T12:22:43.902Z,989.35
2019-01-09T12:23:43.878Z,989.30
2019-01-09T12:24:43.854Z,989.29
2019-01-09T12:25:43.895Z,989.34
2019-01-09T12:26:43.861Z,989.35
2019-01-09T12:27:43.832Z,989.31
2019-01-09T12:28:43.840Z,989.36